Time;durP1;ratioP1;P1;durP2;ratioP2;P2;SDS_P1;SDS_P2;PMS_P1;PMS_P2;Temp;Humidity;BMP_temperature;BMP_pressure;BME280_temperature;BME280_humidity;BME280_pressure;Samples;Min_cycle;Max_cycle;Signal;HPM_P1;HPM_P2
2022/07/01 00:05:09;;;;;;;2.97;1.10;;;;;;;;;;21257176;27;20548;-55
2022/07/01 00:15:11;;;;;;;5.63;0.98;;;;;;;;;;21256025;27;20521;-55
2022/07/01 00:25:14;;;;;;;2.80;0.55;;;;;;;;;;21256318;27;20596;-56
2022/07/01 00:35:16;;;;;;;1.98;0.60;;;;;;;;;;21254439;27;20046;-58
2022/07/01 00:45:18;;;;;;;4.43;0.85;;;;;;;;;;21253499;27;20054;-58
2022/07/01 00:55:20;;;;;;;0.68;0.50;;;;;;;;;;21252711;27;20072;-55
2022/07/01 01:05:22;;;;;;;1.52;0.70;;;;;;;;;;21252556;27;20398;-57
2022/07/01 01:15:24;;;;;;;1.20;0.70;;;;;;;;;;21232916;27;20047;-55
2022/07/01 01:25:28;;;;;;;6.13;0.93;;;;;;;;;;21251197;27;20058;-55
2022/07/01 01:35:31;;;;;;;1.60;0.90;;;;;;;;;;21250238;27;20039;-55
2022/07/01 01:45:35;;;;;;;3.05;0.88;;;;;;;;;;21250918;27;20074;-56
2022/07/01 01:55:37;;;;;;;3.13;0.90;;;;;;;;;;21249426;27;20051;-57
2022/07/01 02:05:41;;;;;;;1.50;0.63;;;;;;;;;;21248211;27;20094;-57
2022/07/01 02:15:49;;;;;;;3.05;0.80;;;;;;;;;;21248608;28;20047;-57
2022/07/01 02:26:10;;;;;;;1.27;0.70;;;;;;;;;;21248078;28;20055;-57
2022/07/01 02:36:18;;;;;;;3.33;0.90;;;;;;;;;;21247122;28;20050;-55
2022/07/01 02:46:25;;;;;;;2.25;0.77;;;;;;;;;;21253180;27;20058;-56
2022/07/01 02:56:29;;;;;;;1.13;0.50;;;;;;;;;;21263566;27;20074;-56
2022/07/01 03:06:35;;;;;;;2.55;0.88;;;;;;;;;;21262072;27;20517;-55
2022/07/01 03:16:41;;;;;;;2.35;0.80;;;;;;;;;;21261789;27;20047;-56
2022/07/01 03:26:44;;;;;;;1.00;0.70;;;;;;;;;;21261525;27;20441;-54
2022/07/01 03:36:46;;;;;;;1.30;0.60;;;;;;;;;;21260423;27;20047;-57
2022/07/01 03:46:49;;;;;;;1.65;0.68;;;;;;;;;;21259739;27;20387;-55
2022/07/01 03:56:52;;;;;;;2.05;0.70;;;;;;;;;;21257398;27;20043;-55
2022/07/01 04:06:55;;;;;;;1.58;0.47;;;;;;;;;;21256831;27;20138;-58
2022/07/01 04:16:58;;;;;;;5.15;0.65;;;;;;;;;;21257889;27;20455;-57
2022/07/01 04:27:00;;;;;;;1.58;0.60;;;;;;;;;;21255774;27;20479;-56
2022/07/01 04:37:03;;;;;;;2.13;0.85;;;;;;;;;;21254767;27;20486;-55
2022/07/01 04:47:05;;;;;;;1.95;0.70;;;;;;;;;;21253540;27;20440;-55
2022/07/01 04:57:09;;;;;;;2.08;0.80;;;;;;;;;;21252901;27;20096;-55
2022/07/01 05:07:27;;;;;;;3.20;0.75;;;;;;;;;;21251174;27;20055;-56
2022/07/01 05:27:50;;;;;;;4.10;0.60;;;;;;;;;;21250532;27;20055;-55
2022/07/01 05:37:52;;;;;;;1.58;0.70;;;;;;;;;;21249416;27;20043;-54
2022/07/01 05:47:54;;;;;;;1.33;0.73;;;;;;;;;;21249993;27;20543;-56
2022/07/01 05:57:56;;;;;;;2.25;0.60;;;;;;;;;;21249639;27;20081;-55
2022/07/01 06:07:58;;;;;;;3.35;0.80;;;;;;;;;;21247811;27;20452;-56
2022/07/01 06:18:01;;;;;;;8.05;0.93;;;;;;;;;;21249689;27;20509;-56
2022/07/01 06:28:04;;;;;;;17.05;5.60;;;;;;;;;;21246567;27;20050;-58
2022/07/01 06:38:06;;;;;;;3.05;0.93;;;;;;;;;;21263887;27;20086;-57
2022/07/01 06:48:08;;;;;;;1.48;0.55;;;;;;;;;;21262686;27;20058;-58
2022/07/01 06:58:10;;;;;;;2.25;1.05;;;;;;;;;;21261794;27;20236;-56
2022/07/01 07:08:12;;;;;;;1.60;0.60;;;;;;;;;;21260349;27;20487;-57
2022/07/01 07:18:13;;;;;;;3.42;1.10;;;;;;;;;;21259792;27;20050;-55
2022/07/01 07:28:15;;;;;;;3.75;1.00;;;;;;;;;;21259221;27;20058;-56
2022/07/01 07:38:17;;;;;;;5.22;1.10;;;;;;;;;;21258545;27;20043;-56
2022/07/01 07:48:20;;;;;;;3.78;1.27;;;;;;;;;;21257447;27;20194;-56
2022/07/01 07:58:21;;;;;;;4.38;0.80;;;;;;;;;;21256583;27;20047;-55
2022/07/01 08:08:23;;;;;;;7.25;1.02;;;;;;;;;;21257998;27;20126;-60
2022/07/01 08:18:25;;;;;;;2.45;1.10;;;;;;;;;;21256617;27;20399;-55
2022/07/01 08:28:27;;;;;;;4.15;1.02;;;;;;;;;;21255834;27;20043;-56
2022/07/01 08:38:29;;;;;;;3.00;1.10;;;;;;;;;;21254280;27;20096;-56
2022/07/01 08:48:31;;;;;;;5.35;1.20;;;;;;;;;;21253467;27;20050;-55
2022/07/01 08:58:36;;;;;;;6.15;1.33;;;;;;;;;;21253921;27;20043;-57
2022/07/01 09:08:39;;;;;;;4.65;1.35;;;;;;;;;;21215944;27;20055;-56
2022/07/01 09:18:41;;;;;;;3.75;1.25;;;;;;;;;;21164835;28;20126;-57
2022/07/01 09:28:52;;;;;;;3.67;1.63;;;;;;;;;;21164494;28;20557;-58
2022/07/01 09:38:54;;;;;;;3.40;1.70;;;;;;;;;;21168147;28;20099;-64
2022/07/01 09:48:56;;;;;;;5.03;1.80;;;;;;;;;;21173395;28;20048;-64
2022/07/01 09:58:58;;;;;;;5.10;1.70;;;;;;;;;;21166068;28;20407;-57
2022/07/01 10:09:19;;;;;;;4.72;1.88;;;;;;;;;;21163407;28;20109;-61
2022/07/01 10:19:23;;;;;;;10.80;2.03;;;;;;;;;;21161983;28;20563;-55
2022/07/01 10:29:36;;;;;;;4.97;1.80;;;;;;;;;;21160834;28;20100;-56
2022/07/01 10:39:53;;;;;;;5.55;1.67;;;;;;;;;;21161542;28;20091;-57
2022/07/01 10:49:56;;;;;;;4.22;1.80;;;;;;;;;;21161290;28;20055;-56
2022/07/01 11:00:01;;;;;;;4.65;1.90;;;;;;;;;;21160910;28;20044;-59
2022/07/01 11:10:04;;;;;;;7.75;2.40;;;;;;;;;;21169819;28;20485;-58
2022/07/01 11:20:06;;;;;;;7.13;1.70;;;;;;;;;;21176208;28;20070;-56
2022/07/01 11:30:11;;;;;;;9.85;1.90;;;;;;;;;;21173362;28;20146;-55
2022/07/01 11:40:17;;;;;;;5.30;1.50;;;;;;;;;;21172382;28;20071;-54
2022/07/01 11:50:19;;;;;;;9.82;1.58;;;;;;;;;;21172213;28;20047;-54
2022/07/01 12:00:21;;;;;;;3.65;1.30;;;;;;;;;;21168604;28;20141;-53
2022/07/01 12:10:27;;;;;;;4.30;1.83;;;;;;;;;;21171944;28;20142;-57
2022/07/01 12:20:32;;;;;;;6.88;1.73;;;;;;;;;;21170571;28;20592;-57
2022/07/01 12:30:34;;;;;;;4.28;1.33;;;;;;;;;;21172793;28;20048;-57
2022/07/01 12:40:36;;;;;;;8.13;1.75;;;;;;;;;;21178263;28;20092;-57
2022/07/01 12:50:38;;;;;;;2.40;1.27;;;;;;;;;;21171398;28;20051;-57
2022/07/01 13:00:42;;;;;;;4.95;1.30;;;;;;;;;;21168683;28;20122;-58
2022/07/01 13:10:45;;;;;;;8.20;1.33;;;;;;;;;;21166914;28;20130;-57
2022/07/01 13:20:47;;;;;;;6.45;1.67;;;;;;;;;;21166632;28;20051;-56
2022/07/01 13:30:49;;;;;;;4.18;1.70;;;;;;;;;;21165245;28;20513;-56
2022/07/01 13:40:52;;;;;;;3.53;1.50;;;;;;;;;;21164285;28;20048;-56
2022/07/01 13:50:55;;;;;;;3.08;1.58;;;;;;;;;;21163483;28;20058;-57
2022/07/01 14:00:57;;;;;;;2.63;1.25;;;;;;;;;;21163885;28;20048;-57
2022/07/01 14:10:59;;;;;;;4.25;1.02;;;;;;;;;;21162642;28;20541;-56
2022/07/01 14:21:04;;;;;;;2.85;0.98;;;;;;;;;;21162700;28;20379;-54
2022/07/01 14:31:06;;;;;;;2.87;1.27;;;;;;;;;;21162122;28;20407;-57
2022/07/01 14:41:09;;;;;;;4.22;2.42;;;;;;;;;;21166965;28;20055;-58
2022/07/01 14:51:11;;;;;;;4.53;1.55;;;;;;;;;;21178280;28;20461;-56
2022/07/01 15:01:13;;;;;;;5.50;1.20;;;;;;;;;;21177438;28;20082;-54
2022/07/01 15:11:15;;;;;;;2.20;1.30;;;;;;;;;;21176566;28;20402;-56
2022/07/01 15:21:17;;;;;;;2.80;1.00;;;;;;;;;;21175502;28;20098;-56
2022/07/01 15:31:18;;;;;;;4.38;1.10;;;;;;;;;;21174578;28;20079;-55
2022/07/01 15:41:22;;;;;;;2.28;1.10;;;;;;;;;;21174192;28;20050;-55
2022/07/01 15:51:27;;;;;;;5.22;1.30;;;;;;;;;;21172437;28;20138;-55
2022/07/01 16:01:29;;;;;;;3.67;1.47;;;;;;;;;;21172674;28;20079;-56
2022/07/01 16:11:31;;;;;;;6.22;1.90;;;;;;;;;;21170796;28;20074;-56
2022/07/01 16:21:35;;;;;;;5.55;1.40;;;;;;;;;;21170395;28;20046;-58
2022/07/01 16:31:38;;;;;;;3.97;1.83;;;;;;;;;;21171026;28;20052;-59
2022/07/01 16:41:42;;;;;;;4.45;1.80;;;;;;;;;;21169435;28;20506;-58
2022/07/01 16:51:43;;;;;;;4.72;1.08;;;;;;;;;;21169070;28;20095;-55
2022/07/01 17:01:46;;;;;;;7.05;1.77;;;;;;;;;;21163488;27;20062;-58
2022/07/01 17:11:49;;;;;;;7.55;2.00;;;;;;;;;;21166188;27;20047;-57
2022/07/01 17:21:52;;;;;;;4.13;1.70;;;;;;;;;;21195322;27;20483;-55
2022/07/01 17:31:58;;;;;;;8.15;2.03;;;;;;;;;;21248747;27;20051;-55
2022/07/01 17:42:01;;;;;;;2.97;1.30;;;;;;;;;;21248512;27;20051;-55
2022/07/01 17:52:03;;;;;;;3.40;1.60;;;;;;;;;;21248274;27;20524;-58
2022/07/01 18:02:04;;;;;;;3.50;1.73;;;;;;;;;;21247043;27;20410;-59
2022/07/01 18:12:08;;;;;;;4.65;1.55;;;;;;;;;;21247204;27;20510;-58
2022/07/01 18:22:19;;;;;;;3.50;1.23;;;;;;;;;;21247263;27;20046;-56
2022/07/01 18:32:20;;;;;;;4.45;1.50;;;;;;;;;;21248792;28;20066;-57
2022/07/01 18:42:21;;;;;;;2.40;1.50;;;;;;;;;;21246822;28;20058;-57
2022/07/01 18:52:22;;;;;;;5.53;1.70;;;;;;;;;;21217084;28;20059;-57
2022/07/01 19:02:23;;;;;;;7.43;1.10;;;;;;;;;;21158745;28;20491;-58
2022/07/01 19:12:24;;;;;;;4.90;1.40;;;;;;;;;;21158950;28;20048;-57
2022/07/01 19:22:25;;;;;;;6.15;1.85;;;;;;;;;;21158778;28;20047;-61
2022/07/01 19:32:27;;;;;;;6.07;3.08;;;;;;;;;;21169482;28;20448;-58
2022/07/01 19:42:28;;;;;;;5.15;2.25;;;;;;;;;;21174056;28;20052;-57
2022/07/01 19:52:29;;;;;;;8.00;3.13;;;;;;;;;;21173952;28;20051;-61
2022/07/01 20:02:30;;;;;;;5.75;2.22;;;;;;;;;;21172245;28;20056;-61
2022/07/01 20:12:31;;;;;;;11.52;3.10;;;;;;;;;;21171030;28;20498;-56
2022/07/01 20:22:35;;;;;;;6.88;3.20;;;;;;;;;;21162727;28;20043;-64
2022/07/01 20:32:38;;;;;;;13.27;7.63;;;;;;;;;;21168253;28;20048;-60
2022/07/01 20:42:43;;;;;;;7.00;3.33;;;;;;;;;;21168530;28;20483;-60
2022/07/01 20:52:45;;;;;;;11.83;4.50;;;;;;;;;;21167856;28;20044;-61
2022/07/01 21:02:47;;;;;;;10.43;3.55;;;;;;;;;;21167984;28;20052;-60
2022/07/01 21:12:49;;;;;;;9.48;3.05;;;;;;;;;;21165987;28;20136;-60
2022/07/01 21:22:53;;;;;;;5.93;3.30;;;;;;;;;;21146174;28;20483;-61
2022/07/01 21:32:55;;;;;;;8.52;3.95;;;;;;;;;;21145724;28;20074;-62
2022/07/01 21:42:57;;;;;;;6.85;2.83;;;;;;;;;;21156519;27;20375;-57
2022/07/01 21:53:02;;;;;;;10.35;2.97;;;;;;;;;;21164478;28;20511;-60
2022/07/01 22:03:04;;;;;;;5.97;2.65;;;;;;;;;;21162978;28;20091;-58
2022/07/01 22:13:06;;;;;;;8.68;2.10;;;;;;;;;;21163880;28;20456;-59
2022/07/01 22:23:08;;;;;;;12.38;8.93;;;;;;;;;;21160816;28;20048;-56
2022/07/01 22:33:11;;;;;;;48.72;39.35;;;;;;;;;;21171372;28;20486;-60
2022/07/01 22:43:19;;;;;;;35.88;27.80;;;;;;;;;;21184265;28;20069;-58
2022/07/01 22:53:38;;;;;;;16.88;7.15;;;;;;;;;;21202052;28;20479;-59
2022/07/01 23:03:42;;;;;;;10.07;3.17;;;;;;;;;;21147891;28;20055;-57
2022/07/01 23:16:25;;;;;;;10.95;3.10;;;;;;;;;;21177518;28;20164;-58
2022/07/01 23:24:09;;;;;;;9.43;2.90;;;;;;;;;;21176815;28;20051;-58
2022/07/01 23:34:11;;;;;;;12.02;2.92;;;;;;;;;;21175350;28;20047;-58
2022/07/01 23:44:13;;;;;;;9.05;2.70;;;;;;;;;;21174518;28;20051;-57
2022/07/01 23:54:15;;;;;;;14.32;2.75;;;;;;;;;;21174420;28;20384;-59
